sensor_id;sensor_type;location;lat;lon;timestamp;pressure;altitude;pressure_sealevel;temperature;humidity
35307;BME280;21420;52.196;21.416;2023-03-14T00:01:22;98722.02;;;8.76;70.54
35307;BME280;21420;52.196;21.416;2023-03-14T00:03:50;98721.35;;;8.69;70.55
35307;BME280;21420;52.196;21.416;2023-03-14T00:06:19;98706.02;;;8.67;70.48
35307;BME280;21420;52.196;21.416;2023-03-14T00:08:46;98706.71;;;8.62;70.34
35307;BME280;21420;52.196;21.416;2023-03-14T00:11:17;98705.92;;;8.57;70.47
35307;BME280;21420;52.196;21.416;2023-03-14T00:13:50;98706.01;;;8.53;70.49
35307;BME280;21420;52.196;21.416;2023-03-14T00:16:18;98701.48;;;8.48;70.57
35307;BME280;21420;52.196;21.416;2023-03-14T00:18:46;98700.09;;;8.44;70.60
35307;BME280;21420;52.196;21.416;2023-03-14T00:21:13;98696.36;;;8.41;70.55
35307;BME280;21420;52.196;21.416;2023-03-14T00:23:41;98697.91;;;8.38;70.54
35307;BME280;21420;52.196;21.416;2023-03-14T00:26:11;98688.28;;;8.36;70.47
35307;BME280;21420;52.196;21.416;2023-03-14T00:28:40;98681.95;;;8.33;70.68
35307;BME280;21420;52.196;21.416;2023-03-14T00:31:10;98677.11;;;8.33;70.71
35307;BME280;21420;52.196;21.416;2023-03-14T00:33:39;98671.80;;;8.33;70.46
35307;BME280;21420;52.196;21.416;2023-03-14T00:36:08;98669.16;;;8.34;70.62
35307;BME280;21420;52.196;21.416;2023-03-14T00:38:37;98661.84;;;8.33;70.57
35307;BME280;21420;52.196;21.416;2023-03-14T00:41:10;98666.48;;;8.31;70.61
35307;BME280;21420;52.196;21.416;2023-03-14T00:43:38;98661.23;;;8.31;70.54
35307;BME280;21420;52.196;21.416;2023-03-14T00:46:06;98654.19;;;8.29;70.37
35307;BME280;21420;52.196;21.416;2023-03-14T00:48:34;98652.67;;;8.27;70.42
35307;BME280;21420;52.196;21.416;2023-03-14T00:51:02;98646.84;;;8.27;70.33
35307;BME280;21420;52.196;21.416;2023-03-14T00:53:30;98649.70;;;8.25;70.26
35307;BME280;21420;52.196;21.416;2023-03-14T00:55:56;98641.29;;;8.22;70.27
35307;BME280;21420;52.196;21.416;2023-03-14T00:58:23;98640.70;;;8.19;70.39
35307;BME280;21420;52.196;21.416;2023-03-14T01:00:50;98630.81;;;8.15;70.31
35307;BME280;21420;52.196;21.416;2023-03-14T01:03:17;98620.91;;;8.10;70.16
35307;BME280;21420;52.196;21.416;2023-03-14T01:05:44;98609.36;;;8.05;70.12
35307;BME280;21420;52.196;21.416;2023-03-14T01:08:11;98609.45;;;8.02;70.06
35307;BME280;21420;52.196;21.416;2023-03-14T01:10:39;98612.83;;;7.99;70.16
35307;BME280;21420;52.196;21.416;2023-03-14T01:13:08;98610.05;;;7.96;70.16
35307;BME280;21420;52.196;21.416;2023-03-14T01:15:36;98609.70;;;7.94;70.09
35307;BME280;21420;52.196;21.416;2023-03-14T01:18:04;98607.48;;;7.91;70.17
35307;BME280;21420;52.196;21.416;2023-03-14T01:20:31;98609.28;;;7.88;70.12
35307;BME280;21420;52.196;21.416;2023-03-14T01:22:58;98598.88;;;7.85;70.02
35307;BME280;21420;52.196;21.416;2023-03-14T01:25:25;98591.08;;;7.81;70.07
35307;BME280;21420;52.196;21.416;2023-03-14T01:27:52;98580.02;;;7.77;69.99
35307;BME280;21420;52.196;21.416;2023-03-14T01:30:19;98584.81;;;7.75;70.09
35307;BME280;21420;52.196;21.416;2023-03-14T01:32:46;98588.66;;;7.72;69.98
35307;BME280;21420;52.196;21.416;2023-03-14T01:35:12;98592.57;;;7.69;69.97
35307;BME280;21420;52.196;21.416;2023-03-14T01:37:40;98593.46;;;7.67;69.98
35307;BME280;21420;52.196;21.416;2023-03-14T01:40:11;98598.39;;;7.65;70.15
35307;BME280;21420;52.196;21.416;2023-03-14T01:42:38;98596.33;;;7.66;70.10
35307;BME280;21420;52.196;21.416;2023-03-14T01:48:15;98594.70;;;7.71;70.09
35307;BME280;21420;52.196;21.416;2023-03-14T01:50:42;98588.98;;;7.72;70.22
35307;BME280;21420;52.196;21.416;2023-03-14T01:53:09;98582.32;;;7.75;70.15
35307;BME280;21420;52.196;21.416;2023-03-14T01:55:37;98581.92;;;7.78;70.07
35307;BME280;21420;52.196;21.416;2023-03-14T01:58:04;98586.69;;;7.79;70.00
35307;BME280;21420;52.196;21.416;2023-03-14T02:00:31;98590.52;;;7.76;69.92
35307;BME280;21420;52.196;21.416;2023-03-14T02:03:02;98590.33;;;7.74;70.02
35307;BME280;21420;52.196;21.416;2023-03-14T02:05:35;98591.23;;;7.72;70.07
35307;BME280;21420;52.196;21.416;2023-03-14T02:08:19;98591.26;;;7.69;69.84
35307;BME280;21420;52.196;21.416;2023-03-14T02:10:51;98593.05;;;7.69;69.80
35307;BME280;21420;52.196;21.416;2023-03-14T02:13:23;98589.14;;;7.69;69.74
35307;BME280;21420;52.196;21.416;2023-03-14T02:22:42;98569.87;;;7.63;69.74
35307;BME280;21420;52.196;21.416;2023-03-14T02:25:19;98565.74;;;7.58;69.55
35307;BME280;21420;52.196;21.416;2023-03-14T02:27:49;98563.80;;;7.50;69.49
35307;BME280;21420;52.196;21.416;2023-03-14T02:30:22;98557.15;;;7.45;69.47
35307;BME280;21420;52.196;21.416;2023-03-14T02:32:56;98557.38;;;7.40;69.34
35307;BME280;21420;52.196;21.416;2023-03-14T02:35:27;98559.48;;;7.41;69.40
35307;BME280;21420;52.196;21.416;2023-03-14T02:38:10;98555.08;;;7.38;69.35
35307;BME280;21420;52.196;21.416;2023-03-14T02:40:43;98549.79;;;7.34;69.34
35307;BME280;21420;52.196;21.416;2023-03-14T02:43:10;98540.81;;;7.33;69.39
35307;BME280;21420;52.196;21.416;2023-03-14T02:45:42;98528.80;;;7.28;69.25
35307;BME280;21420;52.196;21.416;2023-03-14T02:48:19;98524.34;;;7.22;69.29
35307;BME280;21420;52.196;21.416;2023-03-14T02:50:50;98520.68;;;7.18;69.28
35307;BME280;21420;52.196;21.416;2023-03-14T02:53:24;98514.54;;;7.15;69.26
35307;BME280;21420;52.196;21.416;2023-03-14T02:55:54;98502.94;;;7.13;69.18
35307;BME280;21420;52.196;21.416;2023-03-14T02:58:23;98502.60;;;7.08;69.02
35307;BME280;21420;52.196;21.416;2023-03-14T03:00:54;98502.39;;;7.02;69.00
35307;BME280;21420;52.196;21.416;2023-03-14T03:03:22;98506.73;;;6.94;68.92
35307;BME280;21420;52.196;21.416;2023-03-14T03:05:55;98514.88;;;6.86;68.85
35307;BME280;21420;52.196;21.416;2023-03-14T03:08:24;98515.61;;;6.80;68.87
35307;BME280;21420;52.196;21.416;2023-03-14T03:10:53;98510.58;;;6.74;68.76
35307;BME280;21420;52.196;21.416;2023-03-14T03:13:20;98515.24;;;6.67;68.84
35307;BME280;21420;52.196;21.416;2023-03-14T03:15:50;98510.19;;;6.60;68.72
35307;BME280;21420;52.196;21.416;2023-03-14T03:18:17;98513.52;;;6.53;68.77
35307;BME280;21420;52.196;21.416;2023-03-14T03:20:44;98518.92;;;6.47;68.80
35307;BME280;21420;52.196;21.416;2023-03-14T03:23:12;98512.74;;;6.42;68.84
35307;BME280;21420;52.196;21.416;2023-03-14T03:25:39;98513.55;;;6.37;68.82
35307;BME280;21420;52.196;21.416;2023-03-14T03:28:06;98511.34;;;6.32;68.81
35307;BME280;21420;52.196;21.416;2023-03-14T03:30:38;98508.19;;;6.27;68.87
35307;BME280;21420;52.196;21.416;2023-03-14T03:33:05;98506.52;;;6.21;68.83
35307;BME280;21420;52.196;21.416;2023-03-14T03:35:33;98509.45;;;6.17;68.76
35307;BME280;21420;52.196;21.416;2023-03-14T03:38:00;98511.30;;;6.14;68.88
35307;BME280;21420;52.196;21.416;2023-03-14T03:40:27;98506.45;;;6.09;68.85
35307;BME280;21420;52.196;21.416;2023-03-14T03:42:54;98495.26;;;6.06;68.87
35307;BME280;21420;52.196;21.416;2023-03-14T03:45:21;98483.41;;;6.03;68.89
35307;BME280;21420;52.196;21.416;2023-03-14T03:47:51;98475.98;;;6.01;68.90
35307;BME280;21420;52.196;21.416;2023-03-14T03:50:18;98476.88;;;6.00;68.87
35307;BME280;21420;52.196;21.416;2023-03-14T03:52:45;98485.38;;;5.98;68.95
35307;BME280;21420;52.196;21.416;2023-03-14T03:55:12;98491.60;;;5.96;69.03
35307;BME280;21420;52.196;21.416;2023-03-14T03:57:39;98496.88;;;5.95;69.06
35307;BME280;21420;52.196;21.416;2023-03-14T04:00:06;98493.26;;;5.99;69.08
35307;BME280;21420;52.196;21.416;2023-03-14T04:02:45;98482.84;;;6.05;69.10
35307;BME280;21420;52.196;21.416;2023-03-14T04:05:14;98478.16;;;6.12;69.18
35307;BME280;21420;52.196;21.416;2023-03-14T04:07:47;98476.34;;;6.16;69.22
35307;BME280;21420;52.196;21.416;2023-03-14T04:10:19;98477.56;;;6.22;69.31
35307;BME280;21420;52.196;21.416;2023-03-14T04:13:01;98481.26;;;6.28;69.26
35307;BME280;21420;52.196;21.416;2023-03-14T04:15:30;98477.74;;;6.30;69.18
35307;BME280;21420;52.196;21.416;2023-03-14T04:18:00;98474.14;;;6.32;69.12
35307;BME280;21420;52.196;21.416;2023-03-14T04:20:27;98479.98;;;6.33;69.07
35307;BME280;21420;52.196;21.416;2023-03-14T04:22:54;98474.21;;;6.32;69.07
35307;BME280;21420;52.196;21.416;2023-03-14T04:25:21;98468.64;;;6.30;68.98
35307;BME280;21420;52.196;21.416;2023-03-14T04:27:52;98468.66;;;6.30;68.97
35307;BME280;21420;52.196;21.416;2023-03-14T04:30:23;98465.52;;;6.29;68.94
35307;BME280;21420;52.196;21.416;2023-03-14T04:32:53;98469.71;;;6.25;68.92
35307;BME280;21420;52.196;21.416;2023-03-14T04:35:22;98467.73;;;6.20;68.89
35307;BME280;21420;52.196;21.416;2023-03-14T04:37:52;98469.67;;;6.17;68.89
35307;BME280;21420;52.196;21.416;2023-03-14T04:40:20;98479.77;;;6.14;68.90
35307;BME280;21420;52.196;21.416;2023-03-14T04:42:50;98488.52;;;6.12;68.95
35307;BME280;21420;52.196;21.416;2023-03-14T04:45:17;98485.08;;;6.08;69.00
35307;BME280;21420;52.196;21.416;2023-03-14T04:47:44;98492.41;;;6.00;68.87
35307;BME280;21420;52.196;21.416;2023-03-14T04:50:15;98497.75;;;5.96;68.90
35307;BME280;21420;52.196;21.416;2023-03-14T04:52:42;98495.85;;;5.98;68.98
35307;BME280;21420;52.196;21.416;2023-03-14T04:55:09;98492.46;;;5.99;69.01
35307;BME280;21420;52.196;21.416;2023-03-14T04:57:35;98490.38;;;6.00;69.01
35307;BME280;21420;52.196;21.416;2023-03-14T05:00:03;98485.12;;;6.04;69.07
35307;BME280;21420;52.196;21.416;2023-03-14T05:02:56;98476.27;;;6.10;69.15
35307;BME280;21420;52.196;21.416;2023-03-14T05:05:31;98465.17;;;6.17;69.24
35307;BME280;21420;52.196;21.416;2023-03-14T05:08:14;98458.23;;;6.22;69.25
35307;BME280;21420;52.196;21.416;2023-03-14T05:11:01;98451.73;;;6.31;69.29
35307;BME280;21420;52.196;21.416;2023-03-14T05:13:49;98439.82;;;6.40;69.21
35307;BME280;21420;52.196;21.416;2023-03-14T05:16:33;98430.70;;;6.49;69.27
35307;BME280;21420;52.196;21.416;2023-03-14T05:19:13;98435.17;;;6.53;69.21
35307;BME280;21420;52.196;21.416;2023-03-14T05:21:59;98434.11;;;6.60;69.16
35307;BME280;21420;52.196;21.416;2023-03-14T05:24:35;98435.73;;;6.66;69.19
35307;BME280;21420;52.196;21.416;2023-03-14T05:27:11;98434.56;;;6.73;69.16
35307;BME280;21420;52.196;21.416;2023-03-14T05:30:05;98420.02;;;6.81;69.13
35307;BME280;21420;52.196;21.416;2023-03-14T05:32:40;98404.21;;;6.87;69.12
35307;BME280;21420;52.196;21.416;2023-03-14T05:35:10;98392.09;;;6.92;69.05
35307;BME280;21420;52.196;21.416;2023-03-14T05:38:00;98387.19;;;6.91;68.95
35307;BME280;21420;52.196;21.416;2023-03-14T05:40:30;98403.41;;;6.91;69.09
35307;BME280;21420;52.196;21.416;2023-03-14T05:43:04;98417.62;;;6.93;68.99
35307;BME280;21420;52.196;21.416;2023-03-14T05:45:57;98423.96;;;6.96;68.96
35307;BME280;21420;52.196;21.416;2023-03-14T05:48:43;98419.36;;;7.07;68.97
35307;BME280;21420;52.196;21.416;2023-03-14T05:51:33;98424.34;;;7.54;69.12
35307;BME280;21420;52.196;21.416;2023-03-14T05:54:19;98412.24;;;8.11;69.05
35307;BME280;21420;52.196;21.416;2023-03-14T05:56:55;98398.05;;;8.58;68.84
35307;BME280;21420;52.196;21.416;2023-03-14T05:59:28;98397.66;;;8.98;68.52
35307;BME280;21420;52.196;21.416;2023-03-14T06:02:07;98397.85;;;9.30;68.30
35307;BME280;21420;52.196;21.416;2023-03-14T06:04:43;98394.67;;;9.58;68.00
35307;BME280;21420;52.196;21.416;2023-03-14T06:07:09;98389.16;;;9.91;67.86
35307;BME280;21420;52.196;21.416;2023-03-14T06:09:37;98382.96;;;10.22;67.61
35307;BME280;21420;52.196;21.416;2023-03-14T06:12:06;98375.48;;;10.50;67.39
35307;BME280;21420;52.196;21.416;2023-03-14T06:14:38;98369.23;;;10.67;66.97
35307;BME280;21420;52.196;21.416;2023-03-14T06:17:06;98374.13;;;10.80;67.19
35307;BME280;21420;52.196;21.416;2023-03-14T06:19:38;98372.05;;;11.21;67.39
35307;BME280;21420;52.196;21.416;2023-03-14T06:22:05;98373.35;;;11.52;66.97
35307;BME280;21420;52.196;21.416;2023-03-14T06:24:37;98376.02;;;11.71;66.82
35307;BME280;21420;52.196;21.416;2023-03-14T06:27:04;98363.02;;;12.11;66.96
35307;BME280;21420;52.196;21.416;2023-03-14T06:29:31;98363.14;;;12.52;67.07
35307;BME280;21420;52.196;21.416;2023-03-14T06:32:01;98358.71;;;12.82;66.49
35307;BME280;21420;52.196;21.416;2023-03-14T06:34:28;98359.33;;;13.15;66.73
35307;BME280;21420;52.196;21.416;2023-03-14T06:36:55;98355.23;;;13.55;66.26
35307;BME280;21420;52.196;21.416;2023-03-14T06:39:22;98353.47;;;13.96;66.58
35307;BME280;21420;52.196;21.416;2023-03-14T06:41:58;98354.64;;;14.28;65.96
35307;BME280;21420;52.196;21.416;2023-03-14T06:44:25;98350.80;;;14.12;65.05
35307;BME280;21420;52.196;21.416;2023-03-14T06:46:52;98358.06;;;13.40;63.89
35307;BME280;21420;52.196;21.416;2023-03-14T06:49:20;98347.02;;;12.61;64.01
35307;BME280;21420;52.196;21.416;2023-03-14T06:51:50;98336.45;;;12.01;64.03
35307;BME280;21420;52.196;21.416;2023-03-14T06:54:18;98338.35;;;11.55;64.37
35307;BME280;21420;52.196;21.416;2023-03-14T06:56:46;98340.60;;;11.21;64.52
35307;BME280;21420;52.196;21.416;2023-03-14T06:59:13;98339.82;;;10.88;64.63
35307;BME280;21420;52.196;21.416;2023-03-14T07:01:40;98345.94;;;10.66;65.01
35307;BME280;21420;52.196;21.416;2023-03-14T07:04:09;98347.13;;;10.69;65.62
35307;BME280;21420;52.196;21.416;2023-03-14T07:06:39;98353.61;;;10.69;65.50
35307;BME280;21420;52.196;21.416;2023-03-14T07:09:13;98347.88;;;10.66;65.81
35307;BME280;21420;52.196;21.416;2023-03-14T07:11:46;98349.27;;;10.60;65.96
35307;BME280;21420;52.196;21.416;2023-03-14T07:14:13;98345.98;;;10.60;65.95
35307;BME280;21420;52.196;21.416;2023-03-14T07:16:40;98342.79;;;10.66;66.09
35307;BME280;21420;52.196;21.416;2023-03-14T07:19:08;98345.45;;;10.84;66.28
35307;BME280;21420;52.196;21.416;2023-03-14T07:21:35;98350.05;;;11.14;66.51
35307;BME280;21420;52.196;21.416;2023-03-14T07:24:05;98348.30;;;11.67;66.99
35307;BME280;21420;52.196;21.416;2023-03-14T07:26:32;98342.57;;;12.05;66.68
35307;BME280;21420;52.196;21.416;2023-03-14T07:28:59;98346.39;;;12.14;66.61
35307;BME280;21420;52.196;21.416;2023-03-14T07:31:26;98343.87;;;12.20;66.33
35307;BME280;21420;52.196;21.416;2023-03-14T07:33:53;98343.80;;;12.17;66.10
35307;BME280;21420;52.196;21.416;2023-03-14T07:36:21;98343.70;;;12.17;66.36
35307;BME280;21420;52.196;21.416;2023-03-14T07:38:48;98343.80;;;12.16;66.13
35307;BME280;21420;52.196;21.416;2023-03-14T07:41:28;98331.59;;;12.10;65.99
35307;BME280;21420;52.196;21.416;2023-03-14T07:44:14;98314.83;;;12.06;65.78
35307;BME280;21420;52.196;21.416;2023-03-14T07:46:41;98319.77;;;12.05;65.93
35307;BME280;21420;52.196;21.416;2023-03-14T07:49:08;98336.14;;;12.06;65.93
35307;BME280;21420;52.196;21.416;2023-03-14T07:51:35;98342.32;;;12.15;66.05
35307;BME280;21420;52.196;21.416;2023-03-14T07:54:02;98343.53;;;12.32;66.12
35307;BME280;21420;52.196;21.416;2023-03-14T07:56:28;98342.27;;;12.86;66.65
35307;BME280;21420;52.196;21.416;2023-03-14T07:58:56;98337.53;;;13.64;67.00
35307;BME280;21420;52.196;21.416;2023-03-14T08:01:23;98341.13;;;14.72;67.80
35307;BME280;21420;52.196;21.416;2023-03-14T08:03:50;98344.12;;;16.34;68.59
35307;BME280;21420;52.196;21.416;2023-03-14T08:06:17;98348.62;;;17.78;68.30
35307;BME280;21420;52.196;21.416;2023-03-14T08:08:44;98347.15;;;18.87;67.49
35307;BME280;21420;52.196;21.416;2023-03-14T08:11:11;98345.44;;;19.60;66.18
35307;BME280;21420;52.196;21.416;2023-03-14T08:13:38;98342.08;;;20.25;65.59
35307;BME280;21420;52.196;21.416;2023-03-14T08:16:06;98338.02;;;20.98;65.03
35307;BME280;21420;52.196;21.416;2023-03-14T08:18:36;98339.70;;;21.29;63.85
35307;BME280;21420;52.196;21.416;2023-03-14T08:21:03;98351.20;;;21.49;63.12
35307;BME280;21420;52.196;21.416;2023-03-14T08:23:30;98343.08;;;21.90;63.55
35307;BME280;21420;52.196;21.416;2023-03-14T08:25:57;98337.11;;;22.64;64.00
35307;BME280;21420;52.196;21.416;2023-03-14T08:28:24;98337.98;;;23.36;63.43
35307;BME280;21420;52.196;21.416;2023-03-14T08:30:57;98341.54;;;23.45;62.26
35307;BME280;21420;52.196;21.416;2023-03-14T08:33:25;98338.65;;;23.50;61.56
35307;BME280;21420;52.196;21.416;2023-03-14T08:35:53;98337.83;;;23.39;60.88
35307;BME280;21420;52.196;21.416;2023-03-14T08:38:21;98346.79;;;23.17;60.19
35307;BME280;21420;52.196;21.416;2023-03-14T08:40:48;98344.45;;;22.77;59.72
35307;BME280;21420;52.196;21.416;2023-03-14T08:43:16;98346.88;;;22.88;60.55
35307;BME280;21420;52.196;21.416;2023-03-14T08:45:43;98343.42;;;23.13;60.48
35307;BME280;21420;52.196;21.416;2023-03-14T08:48:10;98343.52;;;23.20;60.41
35307;BME280;21420;52.196;21.416;2023-03-14T08:50:37;98344.33;;;23.50;60.41
35307;BME280;21420;52.196;21.416;2023-03-14T08:53:04;98347.02;;;23.64;59.79
35307;BME280;21420;52.196;21.416;2023-03-14T08:55:31;98354.81;;;23.49;58.95
35307;BME280;21420;52.196;21.416;2023-03-14T08:57:58;98346.50;;;23.49;59.14
35307;BME280;21420;52.196;21.416;2023-03-14T09:00:25;98348.56;;;23.85;59.67
35307;BME280;21420;52.196;21.416;2023-03-14T09:02:52;98344.67;;;24.40;59.49
35307;BME280;21420;52.196;21.416;2023-03-14T09:05:19;98352.31;;;24.51;58.87
35307;BME280;21420;52.196;21.416;2023-03-14T09:07:49;98334.15;;;24.64;58.78
35307;BME280;21420;52.196;21.416;2023-03-14T09:10:16;98329.00;;;24.99;58.39
35307;BME280;21420;52.196;21.416;2023-03-14T09:12:43;98321.23;;;25.22;58.69
35307;BME280;21420;52.196;21.416;2023-03-14T09:15:10;98310.78;;;25.70;58.81
35307;BME280;21420;52.196;21.416;2023-03-14T09:17:37;98315.44;;;26.15;58.66
35307;BME280;21420;52.196;21.416;2023-03-14T09:20:04;98305.51;;;26.29;58.00
35307;BME280;21420;52.196;21.416;2023-03-14T09:22:36;98303.42;;;26.76;58.72
35307;BME280;21420;52.196;21.416;2023-03-14T09:25:04;98308.72;;;27.27;58.68
35307;BME280;21420;52.196;21.416;2023-03-14T09:27:31;98307.23;;;27.34;57.48
35307;BME280;21420;52.196;21.416;2023-03-14T09:29:58;98292.52;;;27.14;57.18
35307;BME280;21420;52.196;21.416;2023-03-14T09:32:25;98287.82;;;27.27;57.40
35307;BME280;21420;52.196;21.416;2023-03-14T09:34:52;98287.08;;;27.53;57.54
35307;BME280;21420;52.196;21.416;2023-03-14T09:37:19;98277.05;;;27.51;56.54
35307;BME280;21420;52.196;21.416;2023-03-14T09:39:46;98274.76;;;27.21;56.07
35307;BME280;21420;52.196;21.416;2023-03-14T09:42:17;98272.65;;;27.25;56.61
35307;BME280;21420;52.196;21.416;2023-03-14T09:47:20;98276.48;;;27.49;56.05
35307;BME280;21420;52.196;21.416;2023-03-14T09:49:48;98270.91;;;27.20;55.35
35307;BME280;21420;52.196;21.416;2023-03-14T09:52:17;98270.63;;;26.94;55.25
35307;BME280;21420;52.196;21.416;2023-03-14T09:54:54;98262.25;;;26.92;55.77
35307;BME280;21420;52.196;21.416;2023-03-14T09:57:25;98259.36;;;26.66;55.05
35307;BME280;21420;52.196;21.416;2023-03-14T09:59:57;98258.33;;;26.34;55.03
35307;BME280;21420;52.196;21.416;2023-03-14T10:02:34;98257.63;;;26.45;55.96
35307;BME280;21420;52.196;21.416;2023-03-14T10:05:07;98250.71;;;26.31;54.93
35307;BME280;21420;52.196;21.416;2023-03-14T10:07:35;98241.90;;;25.44;54.19
35307;BME280;21420;52.196;21.416;2023-03-14T10:10:13;98242.70;;;24.54;53.68
35307;BME280;21420;52.196;21.416;2023-03-14T10:12:47;98245.43;;;24.26;54.76
35307;BME280;21420;52.196;21.416;2023-03-14T10:15:24;98246.51;;;24.36;54.65
35307;BME280;21420;52.196;21.416;2023-03-14T10:17:52;98242.89;;;24.16;54.80
35307;BME280;21420;52.196;21.416;2023-03-14T10:22:54;98243.39;;;24.60;55.92
35307;BME280;21420;52.196;21.416;2023-03-14T10:25:33;98234.14;;;24.96;55.68
35307;BME280;21420;52.196;21.416;2023-03-14T10:28:03;98247.33;;;25.06;55.20
35307;BME280;21420;52.196;21.416;2023-03-14T10:33:26;98245.23;;;23.91;53.02
35307;BME280;21420;52.196;21.416;2023-03-14T10:38:32;98218.21;;;22.53;53.63
35307;BME280;21420;52.196;21.416;2023-03-14T10:41:00;98218.66;;;22.25;53.89
35307;BME280;21420;52.196;21.416;2023-03-14T10:43:33;98213.05;;;22.16;54.39
35307;BME280;21420;52.196;21.416;2023-03-14T10:46:06;98217.14;;;21.98;54.51
35307;BME280;21420;52.196;21.416;2023-03-14T10:48:55;98223.99;;;21.47;53.92
35307;BME280;21420;52.196;21.416;2023-03-14T10:51:27;98229.57;;;21.26;54.08
35307;BME280;21420;52.196;21.416;2023-03-14T10:54:03;98221.05;;;21.70;55.27
35307;BME280;21420;52.196;21.416;2023-03-14T10:56:38;98220.11;;;22.61;56.27
35307;BME280;21420;52.196;21.416;2023-03-14T10:59:13;98226.66;;;23.27;55.76
35307;BME280;21420;52.196;21.416;2023-03-14T11:01:41;98223.30;;;23.43;55.16
35307;BME280;21420;52.196;21.416;2023-03-14T11:10:08;98210.52;;;23.95;54.50
35307;BME280;21420;52.196;21.416;2023-03-14T11:21:15;98220.86;;;21.15;52.66
35307;BME280;21420;52.196;21.416;2023-03-14T11:29:31;98224.67;;;19.21;53.15
35307;BME280;21420;52.196;21.416;2023-03-14T11:31:51;98228.52;;;18.63;53.21
35307;BME280;21420;52.196;21.416;2023-03-14T11:39:45;98225.88;;;17.71;53.71
35307;BME280;21420;52.196;21.416;2023-03-14T11:42:16;98227.77;;;17.41;53.90
35307;BME280;21420;52.196;21.416;2023-03-14T11:44:46;98223.88;;;17.25;54.13
35307;BME280;21420;52.196;21.416;2023-03-14T11:47:22;98218.20;;;17.15;54.30
35307;BME280;21420;52.196;21.416;2023-03-14T11:50:24;98200.37;;;17.14;54.57
35307;BME280;21420;52.196;21.416;2023-03-14T11:52:56;98197.50;;;17.15;54.64
35307;BME280;21420;52.196;21.416;2023-03-14T11:55:27;98196.39;;;17.18;54.58
35307;BME280;21420;52.196;21.416;2023-03-14T11:58:12;98200.06;;;17.23;54.72
35307;BME280;21420;52.196;21.416;2023-03-14T12:00:41;98200.70;;;17.16;54.66
35307;BME280;21420;52.196;21.416;2023-03-14T12:03:19;98199.80;;;17.12;54.68
35307;BME280;21420;52.196;21.416;2023-03-14T12:13:41;98194.73;;;16.82;54.76
35307;BME280;21420;52.196;21.416;2023-03-14T12:18:52;98196.86;;;16.93;54.95
35307;BME280;21420;52.196;21.416;2023-03-14T12:21:41;98206.46;;;16.90;54.98
35307;BME280;21420;52.196;21.416;2023-03-14T12:24:18;98215.09;;;16.71;54.66
35307;BME280;21420;52.196;21.416;2023-03-14T12:26:55;98206.41;;;16.53;54.53
35307;BME280;21420;52.196;21.416;2023-03-14T12:29:24;98201.15;;;16.45;54.69
35307;BME280;21420;52.196;21.416;2023-03-14T12:34:30;98183.80;;;16.14;54.84
35307;BME280;21420;52.196;21.416;2023-03-14T12:40:16;98201.66;;;16.04;54.88
35307;BME280;21420;52.196;21.416;2023-03-14T12:42:58;98201.58;;;15.93;54.80
35307;BME280;21420;52.196;21.416;2023-03-14T12:45:30;98210.26;;;15.84;55.00
35307;BME280;21420;52.196;21.416;2023-03-14T12:48:23;98204.17;;;15.85;55.10
35307;BME280;21420;52.196;21.416;2023-03-14T12:51:05;98208.38;;;15.88;55.26
35307;BME280;21420;52.196;21.416;2023-03-14T12:56:48;98206.86;;;15.73;55.23
35307;BME280;21420;52.196;21.416;2023-03-14T12:59:38;98206.17;;;15.71;55.25
35307;BME280;21420;52.196;21.416;2023-03-14T13:04:42;98198.81;;;15.73;55.33
35307;BME280;21420;52.196;21.416;2023-03-14T13:12:57;98200.11;;;15.61;55.49
35307;BME280;21420;52.196;21.416;2023-03-14T13:18:08;98206.04;;;15.64;55.51
35307;BME280;21420;52.196;21.416;2023-03-14T13:20:40;98208.84;;;15.57;55.35
35307;BME280;21420;52.196;21.416;2023-03-14T13:23:24;98206.19;;;15.52;55.50
35307;BME280;21420;52.196;21.416;2023-03-14T13:25:51;98209.73;;;15.48;55.30
35307;BME280;21420;52.196;21.416;2023-03-14T13:28:20;98210.84;;;15.38;55.22
35307;BME280;21420;52.196;21.416;2023-03-14T13:30:49;98217.61;;;15.19;55.31
35307;BME280;21420;52.196;21.416;2023-03-14T13:33:19;98218.58;;;15.03;55.20
35307;BME280;21420;52.196;21.416;2023-03-14T13:35:48;98230.98;;;14.90;55.27
35307;BME280;21420;52.196;21.416;2023-03-14T13:38:24;98234.91;;;14.75;55.26
35307;BME280;21420;52.196;21.416;2023-03-14T13:40:54;98239.43;;;14.60;55.14
35307;BME280;21420;52.196;21.416;2023-03-14T13:43:30;98241.45;;;14.43;55.39
35307;BME280;21420;52.196;21.416;2023-03-14T13:46:05;98248.33;;;14.27;55.17
35307;BME280;21420;52.196;21.416;2023-03-14T13:48:40;98250.05;;;14.08;55.44
35307;BME280;21420;52.196;21.416;2023-03-14T13:51:12;98253.74;;;13.86;55.52
35307;BME280;21420;52.196;21.416;2023-03-14T13:53:50;98262.37;;;13.65;55.52
35307;BME280;21420;52.196;21.416;2023-03-14T13:56:18;98256.19;;;13.44;55.39
35307;BME280;21420;52.196;21.416;2023-03-14T13:58:46;98259.70;;;13.24;55.73
35307;BME280;21420;52.196;21.416;2023-03-14T14:01:33;98268.77;;;13.10;55.93
35307;BME280;21420;52.196;21.416;2023-03-14T14:04:14;98268.39;;;12.95;55.86
35307;BME280;21420;52.196;21.416;2023-03-14T14:06:45;98265.40;;;12.84;56.12
35307;BME280;21420;52.196;21.416;2023-03-14T14:09:19;98266.89;;;12.72;56.48
35307;BME280;21420;52.196;21.416;2023-03-14T14:14:48;98275.84;;;12.55;56.88
35307;BME280;21420;52.196;21.416;2023-03-14T14:17:31;98277.34;;;12.51;57.05
35307;BME280;21420;52.196;21.416;2023-03-14T14:20:01;98273.37;;;12.46;57.03
35307;BME280;21420;52.196;21.416;2023-03-14T14:22:32;98271.37;;;12.41;57.14
35307;BME280;21420;52.196;21.416;2023-03-14T14:25:00;98271.23;;;12.33;57.31
35307;BME280;21420;52.196;21.416;2023-03-14T14:27:37;98264.69;;;12.24;57.16
35307;BME280;21420;52.196;21.416;2023-03-14T14:32:47;98267.33;;;12.12;57.46
35307;BME280;21420;52.196;21.416;2023-03-14T14:35:33;98267.19;;;12.02;57.56
35307;BME280;21420;52.196;21.416;2023-03-14T14:38:02;98267.29;;;11.95;57.73